Time;durP1;ratioP1;P1;durP2;ratioP2;P2;SDS_P1;SDS_P2;PMS_P1;PMS_P2;Temp;Humidity;BMP_temperature;BMP_pressure;BME280_temperature;BME280_humidity;BME280_pressure;Samples;Min_cycle;Max_cycle;Signal;HPM_P1;HPM_P2
2023/12/19 00:01:33;;;;;;;6.13;3.92;;;;;;;3.29;100.00;101182.44;10207293;29;20454;-70
2023/12/19 00:06:33;;;;;;;7.13;4.03;;;;;;;3.35;100.00;101180.28;10206764;29;20051;-70
2023/12/19 00:11:34;;;;;;;6.47;3.97;;;;;;;3.31;100.00;101178.78;10206050;29;20047;-70
2023/12/19 00:16:37;;;;;;;7.63;3.90;;;;;;;3.25;100.00;101176.56;10205385;29;20048;-70
2023/12/19 00:21:37;;;;;;;9.63;4.30;;;;;;;3.01;100.00;101141.41;10204315;29;20407;-70
2023/12/19 00:26:38;;;;;;;10.52;4.15;;;;;;;3.18;100.00;101172.66;10210400;29;20046;-70
2023/12/19 00:31:39;;;;;;;8.65;4.65;;;;;;;2.77;100.00;101101.84;10212156;29;20043;-69
2023/12/19 00:36:39;;;;;;;9.80;4.68;;;;;;;3.15;100.00;101168.44;10212145;28;20146;-70
2023/12/19 00:41:40;;;;;;;8.80;4.93;;;;;;;3.09;100.00;101166.22;10212515;29;20090;-69
2023/12/19 00:46:44;;;;;;;11.80;5.15;;;;;;;2.82;100.00;101112.91;10210408;29;20500;-69
2023/12/19 00:51:45;;;;;;;9.03;5.07;;;;;;;2.72;100.00;101083.75;10211947;28;20036;-69
2023/12/19 00:56:45;;;;;;;12.25;5.38;;;;;;;3.16;100.00;101162.25;10211674;29;20046;-69
2023/12/19 01:01:47;;;;;;;8.30;4.80;;;;;;;3.11;100.00;101143.34;10212286;29;20492;-72
2023/12/19 01:06:48;;;;;;;10.20;4.82;;;;;;;3.12;100.00;101146.81;10211196;29;20040;-69
2023/12/19 01:11:49;;;;;;;8.25;4.07;;;;;;;3.11;100.00;101145.09;10211470;29;20127;-69
2023/12/19 01:16:50;;;;;;;9.93;5.07;;;;;;;2.84;100.00;101092.63;10211242;29;20320;-69
2023/12/19 01:21:50;;;;;;;10.20;4.55;;;;;;;3.14;100.00;101127.38;10211056;29;20135;-70
2023/12/19 01:26:51;;;;;;;10.75;4.40;;;;;;;3.17;100.00;101135.06;10211112;29;20050;-69
2023/12/19 01:31:53;;;;;;;8.10;4.43;;;;;;;3.03;100.00;101103.63;10210783;29;20066;-69
2023/12/19 01:36:55;;;;;;;8.27;4.10;;;;;;;2.71;100.00;101040.13;10209169;29;20149;-69
2023/12/19 01:41:55;;;;;;;10.57;4.47;;;;;;;3.38;100.00;101161.69;10209944;29;20096;-69
2023/12/19 01:46:56;;;;;;;9.27;4.07;;;;;;;3.16;100.00;101114.16;10210386;29;20561;-69
2023/12/19 01:51:58;;;;;;;9.07;4.22;;;;;;;3.26;100.00;101143.25;10208490;29;20048;-69
2023/12/19 01:56:58;;;;;;;8.73;4.80;;;;;;;3.42;100.00;101178.91;10209946;29;20047;-69
2023/12/19 02:01:59;;;;;;;9.23;4.93;;;;;;;3.13;100.00;101133.56;10256857;28;20033;-69
2023/12/19 02:07:00;;;;;;;11.90;4.78;;;;;;;3.01;100.00;101118.63;10254116;28;20056;-70
2023/12/19 02:12:01;;;;;;;14.70;4.82;;;;;;;3.13;100.00;101128.31;10345557;28;20054;-69
2023/12/19 02:17:02;;;;;;;10.18;5.05;;;;;;;3.07;100.00;101131.34;10208673;29;20048;-69
2023/12/19 02:22:03;;;;;;;11.70;5.65;;;;;;;3.37;100.00;101186.25;10209308;29;20051;-69
2023/12/19 02:27:04;;;;;;;11.23;5.15;;;;;;;3.25;100.00;101171.31;10207935;29;20046;-70
2023/12/19 02:32:05;;;;;;;8.55;5.32;;;;;;;3.46;100.00;101192.69;10209200;29;20067;-68
2023/12/19 02:37:06;;;;;;;11.32;5.35;;;;;;;3.48;100.00;101187.34;10208324;28;20125;-70
2023/12/19 02:42:07;;;;;;;10.60;4.97;;;;;;;3.59;100.00;101198.81;10380285;28;20091;-69
2023/12/19 02:47:08;;;;;;;9.02;5.05;;;;;;;3.65;100.00;101198.41;10361228;28;20085;-68
2023/12/19 02:52:09;;;;;;;9.70;4.53;;;;;;;3.81;100.00;101206.09;10301295;28;20036;-69
2023/12/19 02:57:10;;;;;;;11.73;4.38;;;;;;;3.87;100.00;101210.94;10206508;29;20047;-68
2023/12/19 03:02:10;;;;;;;11.15;4.43;;;;;;;3.94;100.00;101221.06;10208120;29;20135;-68
2023/12/19 03:07:11;;;;;;;11.57;5.22;;;;;;;4.00;100.00;101216.22;10207908;29;20047;-69
2023/12/19 03:12:12;;;;;;;8.65;4.50;;;;;;;3.99;100.00;101201.38;10207531;29;20134;-68
2023/12/19 03:17:13;;;;;;;7.85;4.03;;;;;;;4.16;100.00;101217.78;10203677;29;20074;-69
2023/12/19 03:22:14;;;;;;;8.88;4.20;;;;;;;4.14;100.00;101210.03;10199850;29;20063;-69
2023/12/19 03:27:15;;;;;;;12.13;4.68;;;;;;;4.23;100.00;101221.69;10201969;28;20145;-68
2023/12/19 03:32:16;;;;;;;8.40;4.47;;;;;;;4.22;100.00;101214.75;10201334;29;20058;-70
2023/12/19 03:37:17;;;;;;;10.13;4.03;;;;;;;4.20;100.00;101227.16;10196010;29;20546;-68
2023/12/19 03:42:18;;;;;;;11.40;4.63;;;;;;;4.26;100.00;101237.28;10201439;29;20082;-72
2023/12/19 03:47:18;;;;;;;8.43;4.65;;;;;;;4.23;100.00;101238.31;10258981;28;20143;-68
2023/12/19 03:52:20;;;;;;;10.77;4.95;;;;;;;4.20;100.00;101237.69;10202656;28;20044;-69
2023/12/19 03:57:21;;;;;;;9.55;4.40;;;;;;;4.18;100.00;101247.47;10255163;28;20160;-67
2023/12/19 04:02:22;;;;;;;15.40;5.07;;;;;;;3.94;100.00;101211.38;10209490;28;20048;-68
2023/12/19 04:07:22;;;;;;;10.32;5.57;;;;;;;3.94;99.80;101208.75;10206152;29;20070;-69
2023/12/19 04:12:23;;;;;;;10.27;5.03;;;;;;;4.23;100.00;101258.53;10205618;29;20048;-70
2023/12/19 04:17:24;;;;;;;9.57;5.70;;;;;;;4.21;99.64;101266.50;10206000;29;20043;-68
2023/12/19 04:22:25;;;;;;;12.65;5.70;;;;;;;4.18;99.66;101266.72;10204825;29;20043;-68
2023/12/19 04:27:26;;;;;;;13.27;5.45;;;;;;;4.25;99.98;101273.25;10203507;28;20061;-68
2023/12/19 04:32:27;;;;;;;8.73;4.85;;;;;;;3.84;99.96;101205.91;10205164;29;20412;-68
2023/12/19 04:37:28;;;;;;;9.07;5.75;;;;;;;3.73;99.31;101204.94;10275859;28;20137;-70
2023/12/19 04:42:29;;;;;;;13.82;5.75;;;;;;;4.10;100.00;101275.13;10289517;28;20495;-69
2023/12/19 04:47:30;;;;;;;11.68;4.80;;;;;;;4.12;100.00;101278.47;10278790;28;20056;-69
2023/12/19 04:52:30;;;;;;;9.65;5.05;;;;;;;4.19;100.00;101278.94;10205118;29;20505;-69
2023/12/19 04:57:31;;;;;;;10.75;5.13;;;;;;;4.28;100.00;101280.09;10204999;29;20380;-69
2023/12/19 05:02:32;;;;;;;13.25;5.00;;;;;;;4.37;100.00;101284.72;10205004;29;20069;-69
2023/12/19 05:07:33;;;;;;;7.05;4.47;;;;;;;4.41;100.00;101290.63;10204805;29;20055;-69
2023/12/19 05:12:33;;;;;;;9.27;4.80;;;;;;;4.30;100.00;101278.19;10207425;29;20514;-69
2023/12/19 05:17:34;;;;;;;10.70;4.25;;;;;;;4.39;100.00;101277.56;10211306;29;20046;-70
2023/12/19 05:22:35;;;;;;;8.80;4.38;;;;;;;4.51;100.00;101295.13;10211320;29;20488;-69
2023/12/19 05:27:39;;;;;;;12.10;4.95;;;;;;;4.26;100.00;101258.31;10211057;29;20134;-69
2023/12/19 05:32:39;;;;;;;7.63;3.90;;;;;;;4.29;100.00;101255.47;10210406;29;20039;-69
2023/12/19 05:37:42;;;;;;;9.23;4.07;;;;;;;4.49;100.00;101286.53;10210240;29;20586;-69
2023/12/19 05:42:42;;;;;;;7.28;3.55;;;;;;;4.76;100.00;101325.03;10210352;29;20051;-69
2023/12/19 05:47:43;;;;;;;8.77;4.53;;;;;;;4.48;100.00;101260.28;10209812;29;20044;-69
2023/12/19 05:52:44;;;;;;;6.05;3.80;;;;;;;5.01;100.00;101339.97;10210308;29;20054;-69
2023/12/19 05:57:48;;;;;;;9.05;4.03;;;;;;;5.21;100.00;101335.94;10209852;28;20074;-69
2023/12/19 06:02:50;;;;;;;6.50;3.73;;;;;;;4.91;100.00;101260.78;10209578;29;20098;-70
2023/12/19 06:07:51;;;;;;;10.13;4.32;;;;;;;5.03;100.00;101285.41;10210235;29;20094;-69
2023/12/19 06:12:51;;;;;;;9.63;5.38;;;;;;;5.08;100.00;101312.22;10209686;29;20035;-70
2023/12/19 06:17:52;;;;;;;8.98;4.85;;;;;;;5.29;100.00;101349.38;10209468;29;20074;-70
2023/12/19 06:22:53;;;;;;;10.88;5.80;;;;;;;5.34;99.77;101355.16;10208322;29;20066;-69
2023/12/19 06:27:56;;;;;;;13.05;5.75;;;;;;;5.33;99.81;101345.59;10209648;29;20078;-68
2023/12/19 06:32:56;;;;;;;9.73;4.97;;;;;;;5.33;100.00;101350.84;10208921;29;20043;-68
2023/12/19 06:37:57;;;;;;;10.32;5.25;;;;;;;5.28;99.54;101338.97;10209042;28;20512;-68
2023/12/19 06:42:58;;;;;;;11.70;5.32;;;;;;;5.43;99.46;101364.22;10208107;29;20511;-69
2023/12/19 06:48:01;;;;;;;11.77;6.13;;;;;;;5.48;99.23;101344.47;10209234;29;20134;-68
2023/12/19 06:53:02;;;;;;;13.80;5.72;;;;;;;5.63;98.60;101346.97;10209064;29;20047;-69
2023/12/19 06:58:03;;;;;;;12.70;5.63;;;;;;;5.78;97.99;101337.94;10208162;29;20047;-69
2023/12/19 07:03:04;;;;;;;10.43;6.05;;;;;;;5.99;97.20;101337.34;10207645;29;20043;-69
2023/12/19 07:08:05;;;;;;;11.02;6.30;;;;;;;5.82;96.14;101283.19;10207817;29;20051;-70
2023/12/19 07:13:06;;;;;;;13.55;6.32;;;;;;;6.28;95.83;101324.59;10207500;29;20044;-69
2023/12/19 07:18:07;;;;;;;11.13;5.50;;;;;;;6.52;94.84;101325.38;10207078;29;20071;-69
2023/12/19 07:23:08;;;;;;;12.50;5.88;;;;;;;6.81;92.60;101341.59;10207607;29;20044;-70
2023/12/19 07:28:08;;;;;;;11.55;5.72;;;;;;;7.42;91.23;101343.84;10207603;29;20044;-70
2023/12/19 07:33:09;;;;;;;12.23;5.82;;;;;;;7.34;88.63;101252.91;10207167;29;20568;-70
2023/12/19 07:38:10;;;;;;;8.25;4.97;;;;;;;8.24;88.11;101340.69;10206200;29;20086;-70
2023/12/19 07:43:11;;;;;;;8.45;4.90;;;;;;;8.33;87.83;101342.53;10205141;29;20047;-70
2023/12/19 07:48:11;;;;;;;8.98;4.70;;;;;;;8.33;87.46;101341.72;10206253;29;20094;-71
2023/12/19 07:53:12;;;;;;;10.85;5.30;;;;;;;8.29;87.00;101340.31;10206514;29;20050;-71
2023/12/19 07:58:13;;;;;;;9.82;4.82;;;;;;;7.96;85.51;101319.16;10206418;29;20411;-71
2023/12/19 08:03:15;;;;;;;7.40;3.92;;;;;;;7.52;85.60;101272.56;10206508;29;20047;-72
2023/12/19 08:08:17;;;;;;;8.40;4.35;;;;;;;7.78;84.73;101315.41;10206290;29;20169;-71
2023/12/19 08:13:21;;;;;;;7.70;3.75;;;;;;;7.82;84.12;101316.81;10206382;29;20036;-73
2023/12/19 08:18:22;;;;;;;;;;;;;;;8.12;80.93;101310.78;10206115;29;20052;-72
2023/12/19 08:23:23;;;;;;;7.15;3.28;;;;;;;7.35;83.37;101207.00;10205217;29;20390;-72
2023/12/19 08:28:23;;;;;;;11.95;3.78;;;;;;;8.30;82.32;101299.63;10205716;29;20047;-73
2023/12/19 08:33:24;;;;;;;6.70;3.88;;;;;;;8.49;80.91;101288.31;10205730;29;20101;-72
2023/12/19 08:38:25;;;;;;;6.05;3.35;;;;;;;8.52;80.83;101288.88;10205476;28;20086;-72
2023/12/19 08:43:28;;;;;;;8.13;3.90;;;;;;;8.42;80.47;101270.31;10204798;29;20043;-72
2023/12/19 08:48:28;;;;;;;6.78;3.33;;;;;;;8.70;80.21;101289.13;10210698;29;20040;-73
2023/12/19 08:53:31;;;;;;;6.40;3.55;;;;;;;8.43;80.03;101242.03;10211963;29;20043;-73
2023/12/19 08:58:31;;;;;;;6.00;3.90;;;;;;;8.68;80.21;101277.84;10212228;29;20492;-73
2023/12/19 09:03:32;;;;;;;7.68;5.13;;;;;;;8.61;80.46;101277.50;10211188;29;20031;-74
2023/12/19 09:08:33;;;;;;;8.65;4.72;;;;;;;8.21;80.20;101233.25;10210977;29;20113;-74
2023/12/19 09:13:38;;;;;;;9.68;5.07;;;;;;;8.38;80.51;101268.03;10211549;29;20044;-73
2023/12/19 09:18:39;;;;;;;7.43;4.05;;;;;;;8.43;80.24;101260.56;10210648;29;20044;-73
2023/12/19 09:23:39;;;;;;;7.18;3.88;;;;;;;8.13;80.20;101222.47;10211625;29;20043;-73
2023/12/19 09:28:41;;;;;;;7.97;3.97;;;;;;;8.33;80.08;101251.69;10211057;29;20396;-74
2023/12/19 09:33:42;;;;;;;7.65;3.53;;;;;;;8.32;80.05;101250.88;10210904;29;20400;-73
2023/12/19 09:38:43;;;;;;;11.77;4.22;;;;;;;8.48;80.26;101247.75;10210684;29;20064;-73
2023/12/19 09:43:44;;;;;;;8.38;4.03;;;;;;;8.53;80.53;101253.50;10210910;29;20491;-74
2023/12/19 09:48:49;;;;;;;9.27;4.20;;;;;;;8.67;80.07;101231.09;10209831;29;20075;-74
2023/12/19 09:53:53;;;;;;;13.52;5.10;;;;;;;8.81;79.78;101224.63;10210268;29;20047;-73
2023/12/19 09:59:00;;;;;;;;;;;;;;;9.20;78.68;101228.19;10209369;29;20451;-73
2023/12/19 10:04:01;;;;;;;8.65;4.13;;;;;;;9.07;78.95;101207.25;10210072;29;19923;-72
2023/12/19 10:09:02;;;;;;;10.20;4.60;;;;;;;9.06;78.41;101196.78;10210257;29;20048;-73
2023/12/19 10:14:14;;;;;;;13.48;4.25;;;;;;;9.16;77.47;101197.63;10209207;29;20515;-74
2023/12/19 10:19:24;;;;;;;9.23;4.07;;;;;;;9.38;77.72;101202.66;10208928;29;20460;-73
2023/12/19 10:24:26;;;;;;;9.85;3.13;;;;;;;9.33;77.04;101204.06;10208868;29;20046;-73
2023/12/19 10:29:34;;;;;;;10.55;2.90;;;;;;;9.26;76.50;101200.28;10208680;29;20122;-73
2023/12/19 10:34:35;;;;;;;7.25;2.50;;;;;;;9.33;74.75;101194.31;10208530;29;20118;-73
2023/12/19 10:39:36;;;;;;;7.20;2.97;;;;;;;9.26;74.09;101184.38;10208175;29;20063;-73
2023/12/19 10:44:39;;;;;;;8.25;2.90;;;;;;;9.22;73.93;101178.53;10208832;29;20107;-73
2023/12/19 10:49:40;;;;;;;7.50;3.05;;;;;;;9.32;74.07;101187.31;10208538;29;20047;-73
2023/12/19 10:54:44;;;;;;;6.55;3.22;;;;;;;9.25;73.85;101169.47;10208005;29;20047;-72
2023/12/19 10:59:54;;;;;;;8.93;4.45;;;;;;;9.29;72.70;101186.75;10207787;29;20553;-73
2023/12/19 11:05:14;;;;;;;9.40;4.30;;;;;;;9.14;73.44;101189.81;10207334;29;20442;-72
2023/12/19 11:10:21;;;;;;;8.73;4.65;;;;;;;9.01;74.80;101194.53;10206479;29;20043;-73
2023/12/19 11:15:24;;;;;;;9.93;5.43;;;;;;;9.05;75.45;101195.94;10208490;29;20062;-72
2023/12/19 11:20:38;;;;;;;16.83;6.00;;;;;;;9.15;74.69;101201.25;10208087;29;20090;-73
2023/12/19 11:25:44;;;;;;;13.60;6.18;;;;;;;9.07;75.60;101191.34;10208263;29;20055;-73
2023/12/19 11:30:45;;;;;;;11.05;5.13;;;;;;;9.13;75.72;101205.88;10207249;29;20129;-73
2023/12/19 11:35:46;;;;;;;10.73;6.25;;;;;;;9.14;76.19;101200.41;10207174;29;20181;-73
2023/12/19 11:40:55;;;;;;;13.60;6.38;;;;;;;9.17;75.43;101201.94;10207190;29;20161;-73
2023/12/19 11:46:10;;;;;;;14.18;6.43;;;;;;;9.29;74.81;101197.34;10207527;29;20051;-72
2023/12/19 11:51:12;;;;;;;11.63;5.68;;;;;;;9.02;75.85;101148.50;10206111;29;20039;-73
2023/12/19 11:56:13;;;;;;;16.38;6.05;;;;;;;9.29;75.70;101205.31;10206948;29;20495;-73
2023/12/19 12:01:15;;;;;;;11.25;5.50;;;;;;;9.24;76.23;101192.47;10212496;28;20049;-78
2023/12/19 12:06:20;;;;;;;15.10;6.53;;;;;;;9.25;76.59;101201.28;10252394;28;20175;-73
2023/12/19 12:11:21;;;;;;;11.80;6.10;;;;;;;8.89;77.17;101150.59;10258156;28;20065;-74
2023/12/19 12:16:22;;;;;;;13.75;7.38;;;;;;;9.07;77.57;101215.19;10377802;28;20075;-76
2023/12/19 12:21:23;;;;;;;14.38;7.90;;;;;;;8.83;77.87;101209.44;10206671;29;20044;-74
2023/12/19 12:26:24;;;;;;;14.75;7.32;;;;;;;8.67;78.36;101200.19;10212963;29;20046;-74
2023/12/19 12:31:25;;;;;;;16.48;7.53;;;;;;;8.20;79.07;101153.97;10212134;29;20043;-73
2023/12/19 12:36:26;;;;;;;26.23;7.65;;;;;;;7.90;79.32;101123.06;10210801;29;20237;-75
2023/12/19 12:41:28;;;;;;;10.43;5.95;;;;;;;8.33;79.77;101222.59;10330934;28;20074;-74
2023/12/19 12:46:29;;;;;;;16.95;6.63;;;;;;;8.20;80.57;101217.50;10212045;29;20067;-74
2023/12/19 12:51:30;;;;;;;14.55;6.38;;;;;;;8.03;80.77;101208.34;10312826;28;20505;-74
2023/12/19 12:56:40;;;;;;;15.07;5.93;;;;;;;7.95;80.71;101210.78;10419948;28;20083;-75
2023/12/19 13:01:42;;;;;;;20.52;6.55;;;;;;;7.87;80.65;101206.16;10419893;28;20041;-74
2023/12/19 13:06:46;;;;;;;16.55;7.70;;;;;;;7.95;81.29;101240.72;10419566;28;20038;-74
2023/12/19 13:11:50;;;;;;;17.30;7.43;;;;;;;7.83;81.42;101241.75;10349639;28;20040;-73
2023/12/19 13:16:51;;;;;;;;;;;;;;;7.89;81.11;101243.06;10334227;28;20053;-74
2023/12/19 13:21:52;;;;;;;38.70;12.25;;;;;;;7.66;82.13;101245.00;10325696;28;20007;-75
2023/12/19 13:26:53;;;;;;;31.38;13.65;;;;;;;7.56;82.87;101244.91;10267290;28;20569;-73
2023/12/19 13:31:53;;;;;;;26.38;10.85;;;;;;;7.13;83.46;101198.19;10209820;29;20071;-75
2023/12/19 13:36:54;;;;;;;55.15;20.25;;;;;;;7.19;84.42;101224.13;10319769;28;20066;-75
2023/12/19 13:41:58;;;;;;;51.45;15.77;;;;;;;7.04;84.96;101225.38;10417615;28;20041;-75
2023/12/19 13:46:59;;;;;;;17.00;7.90;;;;;;;7.09;85.97;101239.88;10418698;28;20041;-74
2023/12/19 13:52:00;;;;;;;24.38;6.53;;;;;;;6.93;85.89;101235.94;10417899;28;20037;-75
2023/12/19 13:57:01;;;;;;;13.32;4.85;;;;;;;6.93;87.11;101246.50;10416959;28;20115;-76
2023/12/19 14:02:03;;;;;;;9.93;4.88;;;;;;;6.85;87.86;101253.25;10417556;28;20512;-74
2023/12/19 14:07:04;;;;;;;10.00;4.78;;;;;;;6.74;88.76;101261.19;10417774;28;20041;-73
2023/12/19 14:12:05;;;;;;;16.75;6.38;;;;;;;6.57;89.22;101261.66;10417000;28;20037;-73
2023/12/19 14:17:06;;;;;;;17.52;7.40;;;;;;;5.77;90.09;101167.50;10416118;28;20124;-74
2023/12/19 14:22:07;;;;;;;13.90;6.07;;;;;;;5.93;90.27;101230.50;10416683;28;20037;-74
2023/12/19 14:27:08;;;;;;;42.22;24.52;;;;;;;5.88;90.71;101222.91;10415987;28;20047;-73
2023/12/19 14:32:09;;;;;;;24.10;12.48;;;;;;;5.84;91.70;101207.44;10416326;28;20184;-73
2023/12/19 14:37:10;;;;;;;17.83;8.18;;;;;;;6.07;91.92;101254.03;10415708;28;20150;-74
2023/12/19 14:42:10;;;;;;;14.80;7.53;;;;;;;5.55;91.83;101186.75;10415262;28;20057;-74
2023/12/19 14:47:11;;;;;;;18.27;9.65;;;;;;;5.71;92.25;101244.41;10414843;28;20535;-74
2023/12/19 14:52:12;;;;;;;20.65;7.25;;;;;;;5.97;92.57;101286.50;10415428;28;20064;-75
2023/12/19 14:57:13;;;;;;;24.30;11.15;;;;;;;5.82;92.73;101281.38;10415660;28;20558;-75
2023/12/19 15:02:13;;;;;;;15.18;8.30;;;;;;;5.75;93.97;101285.44;10414346;28;20049;-74
2023/12/19 15:07:16;;;;;;;13.77;7.72;;;;;;;5.67;94.10;101280.72;10413072;28;20079;-75
2023/12/19 15:12:16;;;;;;;15.10;7.53;;;;;;;5.32;94.64;101250.84;10384351;28;20555;-75
2023/12/19 15:17:18;;;;;;;15.48;5.63;;;;;;;5.42;95.41;101278.22;10208913;28;20050;-74
2023/12/19 15:22:20;;;;;;;8.63;4.68;;;;;;;5.28;96.06;101268.66;10205917;29;20039;-76
2023/12/19 15:27:20;;;;;;;8.30;4.82;;;;;;;4.91;95.65;101236.25;10203022;29;20099;-78
2023/12/19 15:32:21;;;;;;;11.73;2.92;;;;;;;5.16;95.99;101294.09;10225693;28;20078;-74
2023/12/19 15:37:22;;;;;;;6.47;3.28;;;;;;;5.29;95.82;101298.47;10240624;28;20055;-82
2023/12/19 15:42:23;;;;;;;4.10;2.05;;;;;;;5.23;95.46;101303.25;10206412;29;20120;-75
2023/12/19 15:47:24;;;;;;;5.22;2.15;;;;;;;5.09;94.63;101300.75;10202754;29;20048;-79
2023/12/19 15:52:28;;;;;;;2.67;1.42;;;;;;;5.05;94.84;101288.75;10203287;29;20054;-81
2023/12/19 15:57:29;;;;;;;2.67;1.50;;;;;;;4.85;94.33;101255.94;10205478;29;20051;-80
2023/12/19 16:02:30;;;;;;;3.60;1.58;;;;;;;4.75;94.06;101245.19;10205012;29;20054;-82
2023/12/19 16:07:33;;;;;;;4.30;2.17;;;;;;;4.77;93.40;101253.00;10206109;29;20503;-74
2023/12/19 16:12:33;;;;;;;3.28;1.95;;;;;;;5.08;93.39;101309.59;10205762;29;20039;-77
2023/12/19 16:17:34;;;;;;;3.47;1.75;;;;;;;4.46;93.09;101201.69;10205518;29;20047;-75
2023/12/19 16:22:35;;;;;;;3.38;1.67;;;;;;;5.02;93.56;101291.59;10206778;29;20514;-74
2023/12/19 16:27:36;;;;;;;7.15;2.30;;;;;;;4.95;93.90;101288.56;10206411;28;20039;-73
2023/12/19 16:32:38;;;;;;;6.22;2.30;;;;;;;5.07;93.90;101301.81;10315850;28;20095;-76
2023/12/19 16:37:38;;;;;;;4.57;2.17;;;;;;;5.02;94.03;101297.69;10214288;28;20407;-76
2023/12/19 16:42:39;;;;;;;6.32;2.22;;;;;;;5.04;94.10;101298.44;10249618;28;20043;-73
2023/12/19 16:47:40;;;;;;;5.43;2.25;;;;;;;5.03;94.45;101296.78;10223950;29;20134;-76
2023/12/19 16:52:42;;;;;;;7.50;3.38;;;;;;;5.00;94.06;101288.25;10254772;28;20444;-77
2023/12/19 16:57:42;;;;;;;18.33;10.55;;;;;;;4.34;94.16;101209.50;10240188;28;20519;-81
2023/12/19 17:02:43;;;;;;;14.18;6.65;;;;;;;4.81;94.59;101304.47;10244446;29;20074;-73
2023/12/19 17:07:44;;;;;;;12.68;7.03;;;;;;;4.47;95.01;101246.31;10361479;28;20047;-73
2023/12/19 17:12:48;;;;;;;16.00;7.57;;;;;;;4.77;95.42;101310.91;10228105;28;20048;-76
2023/12/19 17:17:51;;;;;;;9.10;6.30;;;;;;;4.72;95.56;101332.28;10279483;28;20096;-73
2023/12/19 17:22:52;;;;;;;14.15;7.28;;;;;;;4.48;96.21;101295.34;10281362;28;20093;-72
2023/12/19 17:27:53;;;;;;;15.75;7.35;;;;;;;4.28;96.46;101293.25;10209634;29;20527;-75
2023/12/19 17:32:53;;;;;;;22.58;7.25;;;;;;;4.07;97.09;101292.91;10210321;29;20043;-75
2023/12/19 17:37:54;;;;;;;16.00;6.85;;;;;;;4.02;97.10;101293.19;10209511;28;20082;-74
2023/12/19 17:42:55;;;;;;;14.15;5.65;;;;;;;3.98;97.31;101288.22;10216821;28;20122;-74
2023/12/19 17:47:56;;;;;;;12.18;5.95;;;;;;;3.79;97.81;101271.06;10247781;28;20065;-75
2023/12/19 17:52:57;;;;;;;9.55;4.88;;;;;;;3.81;98.35;101277.06;10267332;28;20101;-74
2023/12/19 17:57:58;;;;;;;7.22;4.03;;;;;;;3.44;99.23;101231.38;10209689;29;20070;-75
2023/12/19 18:02:58;;;;;;;6.63;3.70;;;;;;;3.63;98.77;101279.13;10210976;29;20060;-74
2023/12/19 18:07:59;;;;;;;7.63;3.75;;;;;;;3.64;99.91;101277.34;10268560;28;20203;-73
2023/12/19 18:13:00;;;;;;;5.00;2.85;;;;;;;3.74;100.00;101290.69;10221759;28;20070;-74
2023/12/19 18:18:01;;;;;;;6.88;2.90;;;;;;;3.36;100.00;101216.09;10352220;28;20486;-74
2023/12/19 18:23:02;;;;;;;4.88;2.58;;;;;;;3.66;100.00;101276.28;10228508;28;20067;-74
2023/12/19 18:28:03;;;;;;;7.30;3.08;;;;;;;3.63;100.00;101268.63;10208586;29;20044;-75
2023/12/19 18:33:04;;;;;;;6.28;3.25;;;;;;;3.16;100.00;101206.88;10210106;29;20047;-74
2023/12/19 18:38:05;;;;;;;7.25;2.55;;;;;;;3.45;100.00;101264.56;10208558;29;20435;-74
2023/12/19 18:43:06;;;;;;;5.95;2.38;;;;;;;3.48;100.00;101272.25;10209504;29;20048;-73
2023/12/19 18:48:07;;;;;;;3.55;2.08;;;;;;;3.47;100.00;101267.94;10208879;29;20495;-74
2023/12/19 18:53:09;;;;;;;10.45;2.58;;;;;;;3.23;100.00;101227.47;10208292;29;20047;-74
2023/12/19 18:58:09;;;;;;;3.92;2.22;;;;;;;3.35;100.00;101259.06;10207690;29;20046;-74
2023/12/19 19:03:10;;;;;;;4.07;2.50;;;;;;;3.07;100.00;101254.72;10208294;29;20135;-74
2023/12/19 19:08:11;;;;;;;4.82;2.25;;;;;;;3.06;100.00;101265.34;10239557;28;20095;-74
2023/12/19 19:13:12;;;;;;;3.38;2.17;;;;;;;3.07;100.00;101270.47;10234151;28;20067;-75
2023/12/19 19:18:13;;;;;;;4.10;2.10;;;;;;;2.97;100.00;101264.13;10207902;29;20050;-74
2023/12/19 19:23:15;;;;;;;3.38;1.95;;;;;;;2.91;100.00;101246.16;10248781;28;20040;-74
2023/12/19 19:28:18;;;;;;;6.57;2.80;;;;;;;2.57;100.00;101226.41;10237245;28;20040;-74
2023/12/19 19:33:19;;;;;;;5.10;2.55;;;;;;;2.63;100.00;101244.38;10224755;28;20519;-74
2023/12/19 19:38:25;;;;;;;3.33;2.20;;;;;;;2.45;100.00;101200.00;10206981;28;20524;-73
2023/12/19 19:43:26;;;;;;;4.55;2.33;;;;;;;2.76;100.00;101242.69;10206995;29;20093;-74
2023/12/19 19:48:27;;;;;;;4.28;2.00;;;;;;;2.87;100.00;101240.25;10206942;29;20146;-74
2023/12/19 19:53:27;;;;;;;3.53;1.98;;;;;;;2.88;100.00;101241.09;10206547;29;20122;-73
2023/12/19 19:58:28;;;;;;;5.50;2.20;;;;;;;2.87;100.00;101231.50;10206502;29;20048;-74
2023/12/19 20:03:29;;;;;;;5.00;2.28;;;;;;;2.89;100.00;101227.00;10206932;29;20506;-74
2023/12/19 20:08:32;;;;;;;4.75;2.20;;;;;;;2.55;100.00;101157.47;10205825;29;20048;-74
2023/12/19 20:13:32;;;;;;;5.10;2.08;;;;;;;2.98;100.00;101215.94;10263900;28;20523;-73
2023/12/19 20:18:33;;;;;;;3.15;1.80;;;;;;;2.53;100.00;101126.09;10224749;28;20055;-73
2023/12/19 20:23:34;;;;;;;4.45;2.40;;;;;;;3.08;100.00;101210.94;10360793;28;20040;-74
2023/12/19 20:28:35;;;;;;;4.53;2.10;;;;;;;3.09;100.00;101207.38;10206438;29;20130;-73
2023/12/19 20:33:37;;;;;;;4.47;2.05;;;;;;;3.02;100.00;101201.69;10205789;29;20098;-73
2023/12/19 20:38:42;;;;;;;3.45;1.90;;;;;;;2.97;100.00;101211.63;10205693;29;20516;-74
2023/12/19 20:43:43;;;;;;;3.55;1.90;;;;;;;2.84;100.00;101189.72;10209981;29;20134;-73
2023/12/19 20:48:44;;;;;;;3.22;2.10;;;;;;;2.57;100.00;101151.16;10211726;29;20046;-73
2023/12/19 20:53:45;;;;;;;4.20;2.10;;;;;;;2.93;100.00;101208.38;10212694;29;20130;-73
2023/12/19 20:58:46;;;;;;;5.43;2.55;;;;;;;2.85;100.00;101208.00;10211351;29;20134;-74
2023/12/19 21:03:46;;;;;;;3.60;2.20;;;;;;;2.80;100.00;101201.34;10211242;29;20040;-74
2023/12/19 21:08:47;;;;;;;5.68;2.65;;;;;;;2.72;100.00;101205.31;10212087;29;20131;-73
2023/12/19 21:13:48;;;;;;;4.05;2.33;;;;;;;2.42;100.00;101175.72;10211072;29;20048;-73
2023/12/19 21:18:49;;;;;;;4.68;2.00;;;;;;;2.29;100.00;101189.59;10211436;29;20047;-73
2023/12/19 21:23:50;;;;;;;4.75;2.33;;;;;;;2.36;100.00;101186.59;10211319;29;20114;-73
2023/12/19 21:28:51;;;;;;;4.80;2.60;;;;;;;2.44;100.00;101187.81;10211304;29;20040;-75
2023/12/19 21:33:52;;;;;;;4.35;2.50;;;;;;;2.37;100.00;101198.78;10210419;29;20052;-73
2023/12/19 21:38:56;;;;;;;9.40;2.70;;;;;;;2.38;100.00;101184.75;10210700;29;20067;-73
2023/12/19 21:43:57;;;;;;;4.70;2.40;;;;;;;2.24;100.00;101180.34;10211279;29;20043;-73
2023/12/19 21:48:57;;;;;;;6.43;2.72;;;;;;;2.07;100.00;101191.84;10210486;29;20522;-73
2023/12/19 21:54:00;;;;;;;3.45;2.17;;;;;;;1.97;100.00;101188.09;10208386;29;20040;-73
2023/12/19 21:59:01;;;;;;;7.85;2.85;;;;;;;1.79;100.00;101193.47;10210092;29;20051;-74
2023/12/19 22:04:02;;;;;;;6.65;2.85;;;;;;;1.51;100.00;101173.31;10253535;28;20141;-73
2023/12/19 22:09:03;;;;;;;7.47;3.20;;;;;;;1.60;100.00;101190.28;10224100;28;20511;-73
2023/12/19 22:14:06;;;;;;;6.95;3.10;;;;;;;1.88;100.00;101212.22;10209840;29;20051;-73
2023/12/19 22:19:07;;;;;;;5.57;2.97;;;;;;;1.75;100.00;101225.22;10209548;29;20479;-73
2023/12/19 22:24:08;;;;;;;7.70;3.70;;;;;;;1.65;100.00;101226.69;10209275;28;20446;-73
2023/12/19 22:29:09;;;;;;;6.82;3.30;;;;;;;1.46;100.00;101192.84;10208728;29;20050;-73
2023/12/19 22:34:11;;;;;;;4.50;2.90;;;;;;;1.55;100.00;101236.81;10210030;29;20056;-73
2023/12/19 22:39:12;;;;;;;7.25;3.75;;;;;;;1.42;100.00;101223.59;10211360;28;20059;-73
2023/12/19 22:44:13;;;;;;;5.68;3.60;;;;;;;1.24;100.00;101228.09;10263300;28;20070;-73
2023/12/19 22:49:13;;;;;;;8.82;3.05;;;;;;;1.29;100.00;101230.47;10208211;29;20154;-73
2023/12/19 22:54:14;;;;;;;6.65;3.42;;;;;;;1.24;100.00;101235.94;10208463;29;20067;-73
2023/12/19 22:59:15;;;;;;;5.68;3.28;;;;;;;0.77;100.00;101160.94;10207994;29;20043;-73
2023/12/19 23:04:16;;;;;;;5.72;3.03;;;;;;;1.01;100.00;101194.53;10207646;29;20122;-73
2023/12/19 23:09:17;;;;;;;8.60;4.00;;;;;;;1.02;100.00;101218.00;10208026;29;20089;-73